sensor_id;sensor_type;location;lat;lon;timestamp;P1;durP1;ratioP1;P2;durP2;ratioP2
43150;SDS011;28755;51.478;5.702;2023-07-29T00:01:11;5.07;;;3.10;;
43150;SDS011;28755;51.478;5.702;2023-07-29T00:03:36;6.03;;;3.30;;
43150;SDS011;28755;51.478;5.702;2023-07-29T00:06:02;6.90;;;4.18;;
43150;SDS011;28755;51.478;5.702;2023-07-29T00:08:27;4.65;;;3.10;;
43150;SDS011;28755;51.478;5.702;2023-07-29T00:10:53;5.10;;;3.30;;
43150;SDS011;28755;51.478;5.702;2023-07-29T00:13:18;3.60;;;3.30;;
43150;SDS011;28755;51.478;5.702;2023-07-29T00:15:44;8.98;;;3.42;;
43150;SDS011;28755;51.478;5.702;2023-07-29T00:18:10;5.72;;;4.00;;
43150;SDS011;28755;51.478;5.702;2023-07-29T00:20:35;7.82;;;4.03;;
43150;SDS011;28755;51.478;5.702;2023-07-29T00:23:01;9.73;;;4.03;;
43150;SDS011;28755;51.478;5.702;2023-07-29T00:25:27;5.68;;;3.90;;
43150;SDS011;28755;51.478;5.702;2023-07-29T00:27:55;5.65;;;4.05;;
43150;SDS011;28755;51.478;5.702;2023-07-29T00:30:21;4.93;;;3.72;;
43150;SDS011;28755;51.478;5.702;2023-07-29T00:32:47;5.05;;;3.90;;
43150;SDS011;28755;51.478;5.702;2023-07-29T00:35:12;6.53;;;3.90;;
43150;SDS011;28755;51.478;5.702;2023-07-29T00:37:38;4.28;;;3.60;;
43150;SDS011;28755;51.478;5.702;2023-07-29T00:40:37;4.50;;;3.50;;
43150;SDS011;28755;51.478;5.702;2023-07-29T00:42:59;6.18;;;3.80;;
43150;SDS011;28755;51.478;5.702;2023-07-29T00:45:25;5.03;;;3.65;;
43150;SDS011;28755;51.478;5.702;2023-07-29T00:47:53;4.90;;;3.63;;
43150;SDS011;28755;51.478;5.702;2023-07-29T00:50:19;4.72;;;3.60;;
43150;SDS011;28755;51.478;5.702;2023-07-29T00:52:45;5.00;;;3.70;;
43150;SDS011;28755;51.478;5.702;2023-07-29T00:55:11;5.38;;;3.38;;
43150;SDS011;28755;51.478;5.702;2023-07-29T00:57:37;6.75;;;3.80;;
43150;SDS011;28755;51.478;5.702;2023-07-29T01:00:03;4.60;;;3.78;;
43150;SDS011;28755;51.478;5.702;2023-07-29T01:02:29;3.75;;;3.35;;
43150;SDS011;28755;51.478;5.702;2023-07-29T01:04:57;4.30;;;3.55;;
43150;SDS011;28755;51.478;5.702;2023-07-29T01:07:27;6.00;;;3.67;;
43150;SDS011;28755;51.478;5.702;2023-07-29T01:10:04;7.15;;;4.40;;
43150;SDS011;28755;51.478;5.702;2023-07-29T01:12:49;5.30;;;3.72;;
43150;SDS011;28755;51.478;5.702;2023-07-29T01:15:28;4.72;;;3.90;;
43150;SDS011;28755;51.478;5.702;2023-07-29T01:18:06;7.15;;;4.30;;
43150;SDS011;28755;51.478;5.702;2023-07-29T01:20:37;6.88;;;4.30;;
43150;SDS011;28755;51.478;5.702;2023-07-29T01:23:05;5.03;;;3.78;;
43150;SDS011;28755;51.478;5.702;2023-07-29T01:25:30;5.30;;;4.35;;
43150;SDS011;28755;51.478;5.702;2023-07-29T01:27:56;6.45;;;3.80;;
43150;SDS011;28755;51.478;5.702;2023-07-29T01:30:22;6.82;;;4.28;;
43150;SDS011;28755;51.478;5.702;2023-07-29T01:32:59;4.85;;;4.18;;
43150;SDS011;28755;51.478;5.702;2023-07-29T01:35:47;8.50;;;4.15;;
43150;SDS011;28755;51.478;5.702;2023-07-29T01:38:28;4.70;;;4.15;;
43150;SDS011;28755;51.478;5.702;2023-07-29T01:41:01;7.97;;;4.60;;
43150;SDS011;28755;51.478;5.702;2023-07-29T01:43:28;8.30;;;4.85;;
43150;SDS011;28755;51.478;5.702;2023-07-29T01:45:54;6.22;;;4.50;;
43150;SDS011;28755;51.478;5.702;2023-07-29T01:48:21;6.65;;;4.82;;
43150;SDS011;28755;51.478;5.702;2023-07-29T01:50:46;5.50;;;4.40;;
43150;SDS011;28755;51.478;5.702;2023-07-29T01:53:12;10.98;;;5.55;;
43150;SDS011;28755;51.478;5.702;2023-07-29T01:55:38;8.45;;;5.03;;
43150;SDS011;28755;51.478;5.702;2023-07-29T01:58:04;5.78;;;4.82;;
43150;SDS011;28755;51.478;5.702;2023-07-29T02:00:29;6.50;;;4.65;;
43150;SDS011;28755;51.478;5.702;2023-07-29T02:02:55;7.10;;;4.35;;
43150;SDS011;28755;51.478;5.702;2023-07-29T02:05:20;6.53;;;4.25;;
43150;SDS011;28755;51.478;5.702;2023-07-29T02:07:46;7.38;;;5.00;;
43150;SDS011;28755;51.478;5.702;2023-07-29T02:10:11;6.28;;;4.57;;
43150;SDS011;28755;51.478;5.702;2023-07-29T02:12:37;8.05;;;4.75;;
43150;SDS011;28755;51.478;5.702;2023-07-29T02:15:03;5.80;;;4.07;;
43150;SDS011;28755;51.478;5.702;2023-07-29T02:17:30;6.30;;;4.50;;
43150;SDS011;28755;51.478;5.702;2023-07-29T02:19:56;5.35;;;3.90;;
43150;SDS011;28755;51.478;5.702;2023-07-29T02:22:21;4.55;;;3.85;;
43150;SDS011;28755;51.478;5.702;2023-07-29T02:24:47;6.30;;;3.08;;
43150;SDS011;28755;51.478;5.702;2023-07-29T02:27:12;4.53;;;3.10;;
43150;SDS011;28755;51.478;5.702;2023-07-29T02:29:38;4.35;;;3.00;;
43150;SDS011;28755;51.478;5.702;2023-07-29T02:32:03;3.60;;;2.67;;
43150;SDS011;28755;51.478;5.702;2023-07-29T02:34:29;7.65;;;3.25;;
43150;SDS011;28755;51.478;5.702;2023-07-29T02:36:55;6.63;;;2.63;;
43150;SDS011;28755;51.478;5.702;2023-07-29T02:39:20;5.55;;;2.53;;
43150;SDS011;28755;51.478;5.702;2023-07-29T02:41:46;4.50;;;2.80;;
43150;SDS011;28755;51.478;5.702;2023-07-29T02:44:12;4.35;;;2.72;;
43150;SDS011;28755;51.478;5.702;2023-07-29T02:46:37;5.43;;;2.55;;
43150;SDS011;28755;51.478;5.702;2023-07-29T02:49:03;7.82;;;2.83;;
43150;SDS011;28755;51.478;5.702;2023-07-29T02:51:29;4.05;;;2.42;;
43150;SDS011;28755;51.478;5.702;2023-07-29T02:53:55;3.35;;;2.42;;
43150;SDS011;28755;51.478;5.702;2023-07-29T02:56:21;3.55;;;2.47;;
43150;SDS011;28755;51.478;5.702;2023-07-29T02:58:47;3.78;;;2.30;;
43150;SDS011;28755;51.478;5.702;2023-07-29T03:01:12;3.22;;;2.20;;
43150;SDS011;28755;51.478;5.702;2023-07-29T03:03:39;3.35;;;2.33;;
43150;SDS011;28755;51.478;5.702;2023-07-29T03:06:06;3.25;;;2.38;;
43150;SDS011;28755;51.478;5.702;2023-07-29T03:08:33;2.88;;;2.10;;
43150;SDS011;28755;51.478;5.702;2023-07-29T03:11:04;4.68;;;2.30;;
43150;SDS011;28755;51.478;5.702;2023-07-29T03:13:34;5.00;;;2.22;;
43150;SDS011;28755;51.478;5.702;2023-07-29T03:16:15;3.85;;;2.30;;
43150;SDS011;28755;51.478;5.702;2023-07-29T03:18:42;5.22;;;2.60;;
43150;SDS011;28755;51.478;5.702;2023-07-29T03:21:08;4.95;;;2.67;;
43150;SDS011;28755;51.478;5.702;2023-07-29T03:23:34;3.78;;;2.42;;
43150;SDS011;28755;51.478;5.702;2023-07-29T03:26:01;3.83;;;2.70;;
43150;SDS011;28755;51.478;5.702;2023-07-29T03:28:29;5.80;;;2.92;;
43150;SDS011;28755;51.478;5.702;2023-07-29T03:30:58;3.25;;;2.65;;
43150;SDS011;28755;51.478;5.702;2023-07-29T03:33:24;4.65;;;2.78;;
43150;SDS011;28755;51.478;5.702;2023-07-29T03:35:50;5.50;;;2.63;;
43150;SDS011;28755;51.478;5.702;2023-07-29T03:38:19;4.45;;;3.35;;
43150;SDS011;28755;51.478;5.702;2023-07-29T03:40:44;6.65;;;3.15;;
43150;SDS011;28755;51.478;5.702;2023-07-29T03:43:10;6.53;;;3.65;;
43150;SDS011;28755;51.478;5.702;2023-07-29T03:45:36;4.95;;;3.67;;
43150;SDS011;28755;51.478;5.702;2023-07-29T03:48:02;6.78;;;4.18;;
43150;SDS011;28755;51.478;5.702;2023-07-29T03:50:28;6.13;;;4.20;;
43150;SDS011;28755;51.478;5.702;2023-07-29T03:52:54;5.90;;;4.22;;
43150;SDS011;28755;51.478;5.702;2023-07-29T03:55:20;5.93;;;4.00;;
43150;SDS011;28755;51.478;5.702;2023-07-29T03:57:46;6.13;;;4.07;;
43150;SDS011;28755;51.478;5.702;2023-07-29T04:00:11;8.48;;;4.22;;
43150;SDS011;28755;51.478;5.702;2023-07-29T04:02:37;6.93;;;4.55;;
43150;SDS011;28755;51.478;5.702;2023-07-29T04:05:03;9.68;;;4.72;;
43150;SDS011;28755;51.478;5.702;2023-07-29T04:07:31;9.50;;;4.38;;
43150;SDS011;28755;51.478;5.702;2023-07-29T04:09:56;5.00;;;4.22;;
43150;SDS011;28755;51.478;5.702;2023-07-29T04:12:22;6.20;;;4.10;;
43150;SDS011;28755;51.478;5.702;2023-07-29T04:14:49;7.22;;;4.75;;
43150;SDS011;28755;51.478;5.702;2023-07-29T04:17:15;8.43;;;4.30;;
43150;SDS011;28755;51.478;5.702;2023-07-29T04:19:40;6.75;;;4.28;;
43150;SDS011;28755;51.478;5.702;2023-07-29T04:22:06;7.03;;;4.35;;
43150;SDS011;28755;51.478;5.702;2023-07-29T04:24:32;5.78;;;4.28;;
43150;SDS011;28755;51.478;5.702;2023-07-29T04:26:57;5.85;;;4.07;;
43150;SDS011;28755;51.478;5.702;2023-07-29T04:29:23;7.30;;;4.47;;
43150;SDS011;28755;51.478;5.702;2023-07-29T04:31:49;6.00;;;4.50;;
43150;SDS011;28755;51.478;5.702;2023-07-29T04:34:15;6.82;;;4.50;;
43150;SDS011;28755;51.478;5.702;2023-07-29T04:36:41;7.07;;;4.32;;
43150;SDS011;28755;51.478;5.702;2023-07-29T04:39:07;6.18;;;4.30;;
43150;SDS011;28755;51.478;5.702;2023-07-29T04:41:32;7.72;;;4.07;;
43150;SDS011;28755;51.478;5.702;2023-07-29T04:43:58;7.38;;;4.20;;
43150;SDS011;28755;51.478;5.702;2023-07-29T04:46:24;6.07;;;3.97;;
43150;SDS011;28755;51.478;5.702;2023-07-29T04:48:49;7.57;;;4.25;;
43150;SDS011;28755;51.478;5.702;2023-07-29T04:51:15;7.10;;;3.75;;
43150;SDS011;28755;51.478;5.702;2023-07-29T04:53:40;7.88;;;4.07;;
43150;SDS011;28755;51.478;5.702;2023-07-29T04:56:06;5.03;;;3.63;;
43150;SDS011;28755;51.478;5.702;2023-07-29T04:58:31;5.75;;;3.60;;
43150;SDS011;28755;51.478;5.702;2023-07-29T05:00:59;4.25;;;3.35;;
43150;SDS011;28755;51.478;5.702;2023-07-29T05:03:25;6.13;;;3.92;;
43150;SDS011;28755;51.478;5.702;2023-07-29T05:05:51;7.57;;;3.80;;
43150;SDS011;28755;51.478;5.702;2023-07-29T05:08:18;4.47;;;3.33;;
43150;SDS011;28755;51.478;5.702;2023-07-29T05:10:44;5.93;;;3.60;;
43150;SDS011;28755;51.478;5.702;2023-07-29T05:13:09;4.95;;;3.55;;
43150;SDS011;28755;51.478;5.702;2023-07-29T05:15:35;6.53;;;3.55;;
43150;SDS011;28755;51.478;5.702;2023-07-29T05:18:00;5.57;;;3.20;;
43150;SDS011;28755;51.478;5.702;2023-07-29T05:20:26;4.68;;;3.33;;
43150;SDS011;28755;51.478;5.702;2023-07-29T05:22:51;5.85;;;3.60;;
43150;SDS011;28755;51.478;5.702;2023-07-29T05:25:17;5.68;;;3.35;;
43150;SDS011;28755;51.478;5.702;2023-07-29T05:27:42;5.43;;;3.28;;
43150;SDS011;28755;51.478;5.702;2023-07-29T05:30:08;4.60;;;3.03;;
43150;SDS011;28755;51.478;5.702;2023-07-29T05:32:34;5.55;;;3.00;;
43150;SDS011;28755;51.478;5.702;2023-07-29T05:34:59;4.32;;;3.15;;
43150;SDS011;28755;51.478;5.702;2023-07-29T05:37:25;3.92;;;2.85;;
43150;SDS011;28755;51.478;5.702;2023-07-29T05:39:50;5.70;;;2.80;;
43150;SDS011;28755;51.478;5.702;2023-07-29T05:42:16;5.30;;;2.83;;
43150;SDS011;28755;51.478;5.702;2023-07-29T05:44:41;3.40;;;2.60;;
43150;SDS011;28755;51.478;5.702;2023-07-29T05:47:07;6.13;;;3.10;;
43150;SDS011;28755;51.478;5.702;2023-07-29T05:49:32;6.45;;;2.90;;
43150;SDS011;28755;51.478;5.702;2023-07-29T05:51:58;4.20;;;2.50;;
43150;SDS011;28755;51.478;5.702;2023-07-29T05:54:24;3.58;;;2.70;;
43150;SDS011;28755;51.478;5.702;2023-07-29T05:56:50;8.82;;;3.10;;
43150;SDS011;28755;51.478;5.702;2023-07-29T05:59:15;3.78;;;2.42;;
43150;SDS011;28755;51.478;5.702;2023-07-29T06:01:41;6.15;;;2.70;;
43150;SDS011;28755;51.478;5.702;2023-07-29T06:04:07;4.47;;;2.60;;
43150;SDS011;28755;51.478;5.702;2023-07-29T06:06:32;2.40;;;2.20;;
43150;SDS011;28755;51.478;5.702;2023-07-29T06:08:58;4.47;;;2.53;;
43150;SDS011;28755;51.478;5.702;2023-07-29T06:11:24;5.38;;;2.45;;
43150;SDS011;28755;51.478;5.702;2023-07-29T06:13:50;4.93;;;2.30;;
43150;SDS011;28755;51.478;5.702;2023-07-29T06:16:15;6.03;;;2.30;;
43150;SDS011;28755;51.478;5.702;2023-07-29T06:18:41;3.13;;;2.15;;
43150;SDS011;28755;51.478;5.702;2023-07-29T06:21:06;5.10;;;2.40;;
43150;SDS011;28755;51.478;5.702;2023-07-29T06:23:33;3.72;;;2.45;;
43150;SDS011;28755;51.478;5.702;2023-07-29T06:25:59;7.75;;;2.40;;
43150;SDS011;28755;51.478;5.702;2023-07-29T06:28:25;5.43;;;2.60;;
43150;SDS011;28755;51.478;5.702;2023-07-29T06:30:51;5.70;;;2.25;;
43150;SDS011;28755;51.478;5.702;2023-07-29T06:33:17;4.20;;;2.40;;
43150;SDS011;28755;51.478;5.702;2023-07-29T06:35:43;5.50;;;2.42;;
43150;SDS011;28755;51.478;5.702;2023-07-29T06:38:08;5.35;;;2.33;;
43150;SDS011;28755;51.478;5.702;2023-07-29T06:40:34;4.60;;;2.65;;
43150;SDS011;28755;51.478;5.702;2023-07-29T06:42:59;2.25;;;2.00;;
43150;SDS011;28755;51.478;5.702;2023-07-29T06:45:25;3.03;;;1.95;;
43150;SDS011;28755;51.478;5.702;2023-07-29T06:47:51;2.42;;;1.75;;
43150;SDS011;28755;51.478;5.702;2023-07-29T06:50:17;2.83;;;2.03;;
43150;SDS011;28755;51.478;5.702;2023-07-29T06:52:42;4.57;;;2.20;;
43150;SDS011;28755;51.478;5.702;2023-07-29T06:55:08;3.17;;;2.03;;
43150;SDS011;28755;51.478;5.702;2023-07-29T06:57:34;3.58;;;1.92;;
43150;SDS011;28755;51.478;5.702;2023-07-29T06:59:59;4.45;;;2.20;;
43150;SDS011;28755;51.478;5.702;2023-07-29T07:02:25;4.03;;;1.65;;
43150;SDS011;28755;51.478;5.702;2023-07-29T07:04:51;2.55;;;1.77;;
43150;SDS011;28755;51.478;5.702;2023-07-29T07:07:16;6.45;;;1.90;;
43150;SDS011;28755;51.478;5.702;2023-07-29T07:09:42;2.78;;;1.92;;
43150;SDS011;28755;51.478;5.702;2023-07-29T07:12:07;2.97;;;1.92;;
43150;SDS011;28755;51.478;5.702;2023-07-29T07:14:33;3.75;;;1.75;;
43150;SDS011;28755;51.478;5.702;2023-07-29T07:16:58;2.38;;;1.48;;
43150;SDS011;28755;51.478;5.702;2023-07-29T07:19:24;2.80;;;1.52;;
43150;SDS011;28755;51.478;5.702;2023-07-29T07:21:49;5.13;;;1.45;;
43150;SDS011;28755;51.478;5.702;2023-07-29T07:24:15;2.47;;;1.45;;
43150;SDS011;28755;51.478;5.702;2023-07-29T07:26:40;3.00;;;1.52;;
43150;SDS011;28755;51.478;5.702;2023-07-29T07:29:06;4.93;;;1.73;;
43150;SDS011;28755;51.478;5.702;2023-07-29T07:31:35;1.98;;;1.45;;
43150;SDS011;28755;51.478;5.702;2023-07-29T07:34:00;4.40;;;1.55;;
43150;SDS011;28755;51.478;5.702;2023-07-29T07:36:27;2.95;;;1.30;;
43150;SDS011;28755;51.478;5.702;2023-07-29T07:38:54;2.53;;;1.73;;
43150;SDS011;28755;51.478;5.702;2023-07-29T07:41:19;3.25;;;1.85;;
43150;SDS011;28755;51.478;5.702;2023-07-29T07:43:45;3.72;;;1.90;;
43150;SDS011;28755;51.478;5.702;2023-07-29T07:46:10;3.05;;;1.33;;
43150;SDS011;28755;51.478;5.702;2023-07-29T07:48:36;3.50;;;1.40;;
43150;SDS011;28755;51.478;5.702;2023-07-29T07:51:10;3.65;;;1.75;;
43150;SDS011;28755;51.478;5.702;2023-07-29T07:53:36;2.45;;;1.45;;
43150;SDS011;28755;51.478;5.702;2023-07-29T07:56:02;3.13;;;1.52;;
43150;SDS011;28755;51.478;5.702;2023-07-29T07:58:27;2.95;;;1.73;;
43150;SDS011;28755;51.478;5.702;2023-07-29T08:01:00;4.30;;;1.70;;
43150;SDS011;28755;51.478;5.702;2023-07-29T08:03:26;3.33;;;1.20;;
43150;SDS011;28755;51.478;5.702;2023-07-29T08:05:52;3.30;;;1.20;;
43150;SDS011;28755;51.478;5.702;2023-07-29T08:08:17;4.85;;;1.48;;
43150;SDS011;28755;51.478;5.702;2023-07-29T08:10:43;3.08;;;1.30;;
43150;SDS011;28755;51.478;5.702;2023-07-29T08:13:08;3.22;;;1.20;;
43150;SDS011;28755;51.478;5.702;2023-07-29T08:15:34;4.07;;;1.50;;
43150;SDS011;28755;51.478;5.702;2023-07-29T08:17:59;5.57;;;1.55;;
43150;SDS011;28755;51.478;5.702;2023-07-29T08:20:25;4.63;;;1.42;;
43150;SDS011;28755;51.478;5.702;2023-07-29T08:22:50;2.08;;;1.20;;
43150;SDS011;28755;51.478;5.702;2023-07-29T08:25:16;7.00;;;1.33;;
43150;SDS011;28755;51.478;5.702;2023-07-29T08:27:41;2.50;;;1.30;;
43150;SDS011;28755;51.478;5.702;2023-07-29T08:30:07;1.80;;;1.27;;
43150;SDS011;28755;51.478;5.702;2023-07-29T08:32:33;1.80;;;1.27;;
43150;SDS011;28755;51.478;5.702;2023-07-29T08:34:59;2.40;;;1.30;;
43150;SDS011;28755;51.478;5.702;2023-07-29T08:37:24;5.65;;;1.50;;
43150;SDS011;28755;51.478;5.702;2023-07-29T08:39:51;2.05;;;1.38;;
43150;SDS011;28755;51.478;5.702;2023-07-29T08:42:19;3.42;;;1.20;;
43150;SDS011;28755;51.478;5.702;2023-07-29T08:44:44;1.70;;;1.25;;
43150;SDS011;28755;51.478;5.702;2023-07-29T08:47:13;6.32;;;1.48;;
43150;SDS011;28755;51.478;5.702;2023-07-29T08:49:39;5.07;;;1.45;;
43150;SDS011;28755;51.478;5.702;2023-07-29T08:52:06;2.83;;;1.20;;
43150;SDS011;28755;51.478;5.702;2023-07-29T08:54:32;2.10;;;1.40;;
43150;SDS011;28755;51.478;5.702;2023-07-29T08:56:57;2.42;;;1.35;;
43150;SDS011;28755;51.478;5.702;2023-07-29T08:59:23;1.58;;;1.02;;
43150;SDS011;28755;51.478;5.702;2023-07-29T09:01:50;3.88;;;1.05;;
43150;SDS011;28755;51.478;5.702;2023-07-29T09:04:20;3.67;;;1.17;;
43150;SDS011;28755;51.478;5.702;2023-07-29T09:06:46;2.72;;;1.08;;
43150;SDS011;28755;51.478;5.702;2023-07-29T09:09:14;2.88;;;1.10;;
43150;SDS011;28755;51.478;5.702;2023-07-29T09:11:40;2.80;;;1.40;;
43150;SDS011;28755;51.478;5.702;2023-07-29T09:14:05;5.78;;;1.30;;
43150;SDS011;28755;51.478;5.702;2023-07-29T09:16:31;2.17;;;1.10;;
43150;SDS011;28755;51.478;5.702;2023-07-29T09:18:58;2.92;;;1.10;;
43150;SDS011;28755;51.478;5.702;2023-07-29T09:21:27;5.15;;;1.10;;
43150;SDS011;28755;51.478;5.702;2023-07-29T09:23:54;2.75;;;0.93;;
43150;SDS011;28755;51.478;5.702;2023-07-29T09:26:24;1.95;;;0.93;;
43150;SDS011;28755;51.478;5.702;2023-07-29T09:28:54;1.80;;;0.90;;
43150;SDS011;28755;51.478;5.702;2023-07-29T09:31:24;1.70;;;1.02;;
43150;SDS011;28755;51.478;5.702;2023-07-29T09:33:57;2.90;;;0.90;;
43150;SDS011;28755;51.478;5.702;2023-07-29T09:36:24;1.65;;;0.95;;
43150;SDS011;28755;51.478;5.702;2023-07-29T09:38:54;2.78;;;1.23;;
43150;SDS011;28755;51.478;5.702;2023-07-29T09:41:24;0.77;;;0.60;;
43150;SDS011;28755;51.478;5.702;2023-07-29T09:43:56;2.78;;;1.10;;
43150;SDS011;28755;51.478;5.702;2023-07-29T09:48:52;1.20;;;0.90;;
43150;SDS011;28755;51.478;5.702;2023-07-29T09:51:19;2.13;;;1.00;;
43150;SDS011;28755;51.478;5.702;2023-07-29T09:53:46;5.07;;;1.10;;
43150;SDS011;28755;51.478;5.702;2023-07-29T09:56:15;1.52;;;0.95;;
43150;SDS011;28755;51.478;5.702;2023-07-29T09:58:42;2.03;;;1.10;;
43150;SDS011;28755;51.478;5.702;2023-07-29T10:01:12;5.07;;;1.38;;
43150;SDS011;28755;51.478;5.702;2023-07-29T10:03:39;1.45;;;1.00;;
43150;SDS011;28755;51.478;5.702;2023-07-29T10:06:06;2.72;;;1.17;;
43150;SDS011;28755;51.478;5.702;2023-07-29T10:08:32;3.60;;;1.23;;
43150;SDS011;28755;51.478;5.702;2023-07-29T10:11:03;3.17;;;1.40;;
43150;SDS011;28755;51.478;5.702;2023-07-29T10:13:31;2.83;;;1.25;;
43150;SDS011;28755;51.478;5.702;2023-07-29T10:15:58;1.92;;;1.17;;
43150;SDS011;28755;51.478;5.702;2023-07-29T10:18:24;3.78;;;1.10;;
43150;SDS011;28755;51.478;5.702;2023-07-29T10:20:51;1.70;;;1.13;;
43150;SDS011;28755;51.478;5.702;2023-07-29T10:23:21;2.22;;;1.20;;
43150;SDS011;28755;51.478;5.702;2023-07-29T10:25:49;2.92;;;1.00;;
43150;SDS011;28755;51.478;5.702;2023-07-29T10:28:19;2.08;;;1.08;;
43150;SDS011;28755;51.478;5.702;2023-07-29T10:30:48;2.50;;;1.08;;
43150;SDS011;28755;51.478;5.702;2023-07-29T10:33:15;2.72;;;1.20;;
43150;SDS011;28755;51.478;5.702;2023-07-29T10:35:41;2.08;;;1.13;;
43150;SDS011;28755;51.478;5.702;2023-07-29T10:38:07;1.85;;;1.02;;
43150;SDS011;28755;51.478;5.702;2023-07-29T10:40:43;3.17;;;1.40;;
43150;SDS011;28755;51.478;5.702;2023-07-29T10:43:12;2.72;;;1.20;;
43150;SDS011;28755;51.478;5.702;2023-07-29T10:45:43;2.47;;;1.20;;
43150;SDS011;28755;51.478;5.702;2023-07-29T10:48:12;1.52;;;1.17;;
43150;SDS011;28755;51.478;5.702;2023-07-29T10:53:43;1.83;;;1.30;;
43150;SDS011;28755;51.478;5.702;2023-07-29T10:56:08;2.72;;;1.17;;
43150;SDS011;28755;51.478;5.702;2023-07-29T10:58:34;2.30;;;1.10;;
43150;SDS011;28755;51.478;5.702;2023-07-29T11:00:59;2.08;;;1.00;;
43150;SDS011;28755;51.478;5.702;2023-07-29T11:03:25;2.03;;;1.38;;
43150;SDS011;28755;51.478;5.702;2023-07-29T11:05:54;3.08;;;1.65;;
43150;SDS011;28755;51.478;5.702;2023-07-29T11:08:29;1.77;;;1.17;;
43150;SDS011;28755;51.478;5.702;2023-07-29T11:10:59;2.50;;;1.30;;
43150;SDS011;28755;51.478;5.702;2023-07-29T11:13:36;7.22;;;1.58;;
43150;SDS011;28755;51.478;5.702;2023-07-29T11:16:03;2.40;;;1.20;;
43150;SDS011;28755;51.478;5.702;2023-07-29T11:18:30;2.22;;;1.30;;
43150;SDS011;28755;51.478;5.702;2023-07-29T11:21:00;1.73;;;1.10;;
43150;SDS011;28755;51.478;5.702;2023-07-29T11:23:32;2.58;;;1.20;;
43150;SDS011;28755;51.478;5.702;2023-07-29T11:25:59;3.85;;;1.40;;
43150;SDS011;28755;51.478;5.702;2023-07-29T11:28:25;3.05;;;1.10;;
43150;SDS011;28755;51.478;5.702;2023-07-29T11:30:51;2.15;;;1.27;;
43150;SDS011;28755;51.478;5.702;2023-07-29T11:33:19;1.90;;;1.30;;
43150;SDS011;28755;51.478;5.702;2023-07-29T11:35:46;1.67;;;1.20;;
43150;SDS011;28755;51.478;5.702;2023-07-29T11:38:14;1.45;;;1.20;;
43150;SDS011;28755;51.478;5.702;2023-07-29T11:40:52;2.17;;;1.10;;
43150;SDS011;28755;51.478;5.702;2023-07-29T11:43:23;2.83;;;1.25;;
43150;SDS011;28755;51.478;5.702;2023-07-29T11:45:48;3.92;;;1.13;;
43150;SDS011;28755;51.478;5.702;2023-07-29T11:48:14;2.30;;;1.67;;
43150;SDS011;28755;51.478;5.702;2023-07-29T11:50:39;2.85;;;1.27;;
43150;SDS011;28755;51.478;5.702;2023-07-29T11:53:05;7.20;;;1.80;;
43150;SDS011;28755;51.478;5.702;2023-07-29T11:55:31;3.42;;;2.00;;
43150;SDS011;28755;51.478;5.702;2023-07-29T11:57:58;4.50;;;1.85;;
43150;SDS011;28755;51.478;5.702;2023-07-29T12:00:26;3.03;;;1.92;;
43150;SDS011;28755;51.478;5.702;2023-07-29T12:02:51;4.28;;;1.98;;
43150;SDS011;28755;51.478;5.702;2023-07-29T12:05:17;4.35;;;2.45;;
43150;SDS011;28755;51.478;5.702;2023-07-29T12:07:46;9.98;;;2.67;;
43150;SDS011;28755;51.478;5.702;2023-07-29T12:10:12;5.68;;;2.13;;
43150;SDS011;28755;51.478;5.702;2023-07-29T12:12:49;4.50;;;2.03;;
43150;SDS011;28755;51.478;5.702;2023-07-29T12:15:27;3.92;;;1.77;;
43150;SDS011;28755;51.478;5.702;2023-07-29T12:17:55;4.82;;;1.98;;
43150;SDS011;28755;51.478;5.702;2023-07-29T12:20:21;2.50;;;2.00;;
43150;SDS011;28755;51.478;5.702;2023-07-29T12:22:51;3.58;;;1.92;;
43150;SDS011;28755;51.478;5.702;2023-07-29T12:25:20;7.70;;;2.28;;
43150;SDS011;28755;51.478;5.702;2023-07-29T12:27:47;3.88;;;2.05;;
43150;SDS011;28755;51.478;5.702;2023-07-29T12:30:12;2.35;;;2.00;;
43150;SDS011;28755;51.478;5.702;2023-07-29T12:32:44;3.97;;;2.13;;
43150;SDS011;28755;51.478;5.702;2023-07-29T12:35:11;3.47;;;2.03;;
43150;SDS011;28755;51.478;5.702;2023-07-29T12:37:37;8.27;;;2.42;;
43150;SDS011;28755;51.478;5.702;2023-07-29T12:40:03;3.78;;;1.95;;
43150;SDS011;28755;51.478;5.702;2023-07-29T12:42:29;3.70;;;2.13;;
43150;SDS011;28755;51.478;5.702;2023-07-29T12:44:55;4.03;;;2.55;;
43150;SDS011;28755;51.478;5.702;2023-07-29T12:47:21;4.13;;;2.50;;
43150;SDS011;28755;51.478;5.702;2023-07-29T12:49:46;5.18;;;2.88;;
43150;SDS011;28755;51.478;5.702;2023-07-29T12:52:12;7.35;;;2.50;;
43150;SDS011;28755;51.478;5.702;2023-07-29T12:54:37;4.40;;;2.63;;
43150;SDS011;28755;51.478;5.702;2023-07-29T12:57:05;8.05;;;3.00;;
43150;SDS011;28755;51.478;5.702;2023-07-29T12:59:31;3.17;;;1.63;;
43150;SDS011;28755;51.478;5.702;2023-07-29T13:01:56;4.45;;;2.70;;
43150;SDS011;28755;51.478;5.702;2023-07-29T13:04:22;7.40;;;2.70;;
43150;SDS011;28755;51.478;5.702;2023-07-29T13:06:47;7.60;;;2.90;;
43150;SDS011;28755;51.478;5.702;2023-07-29T13:09:13;6.13;;;3.15;;
43150;SDS011;28755;51.478;5.702;2023-07-29T13:11:38;7.22;;;2.88;;
43150;SDS011;28755;51.478;5.702;2023-07-29T13:14:04;4.03;;;3.28;;
43150;SDS011;28755;51.478;5.702;2023-07-29T13:16:29;5.10;;;2.22;;
43150;SDS011;28755;51.478;5.702;2023-07-29T13:18:55;3.30;;;1.48;;
43150;SDS011;28755;51.478;5.702;2023-07-29T13:21:21;4.20;;;1.50;;
43150;SDS011;28755;51.478;5.702;2023-07-29T13:23:46;2.40;;;1.48;;
43150;SDS011;28755;51.478;5.702;2023-07-29T13:26:12;2.78;;;1.30;;
43150;SDS011;28755;51.478;5.702;2023-07-29T13:28:37;2.78;;;1.40;;
43150;SDS011;28755;51.478;5.702;2023-07-29T13:31:03;4.50;;;1.30;;
43150;SDS011;28755;51.478;5.702;2023-07-29T13:33:28;1.75;;;1.20;;
43150;SDS011;28755;51.478;5.702;2023-07-29T13:35:58;2.83;;;1.42;;
43150;SDS011;28755;51.478;5.702;2023-07-29T13:38:24;1.80;;;1.27;;
43150;SDS011;28755;51.478;5.702;2023-07-29T13:40:50;2.90;;;1.27;;
43150;SDS011;28755;51.478;5.702;2023-07-29T13:43:16;2.78;;;1.40;;
43150;SDS011;28755;51.478;5.702;2023-07-29T13:45:41;3.35;;;1.48;;
43150;SDS011;28755;51.478;5.702;2023-07-29T13:48:07;1.95;;;1.60;;
43150;SDS011;28755;51.478;5.702;2023-07-29T13:50:32;4.57;;;1.70;;
43150;SDS011;28755;51.478;5.702;2023-07-29T13:52:58;3.20;;;1.73;;
43150;SDS011;28755;51.478;5.702;2023-07-29T13:55:24;3.25;;;1.63;;
43150;SDS011;28755;51.478;5.702;2023-07-29T13:57:49;3.72;;;1.55;;
43150;SDS011;28755;51.478;5.702;2023-07-29T14:00:15;3.08;;;1.40;;
43150;SDS011;28755;51.478;5.702;2023-07-29T14:02:41;2.38;;;1.38;;
43150;SDS011;28755;51.478;5.702;2023-07-29T14:05:07;2.13;;;1.23;;
43150;SDS011;28755;51.478;5.702;2023-07-29T14:07:33;2.45;;;1.42;;
43150;SDS011;28755;51.478;5.702;2023-07-29T14:09:59;2.00;;;1.30;;
43150;SDS011;28755;51.478;5.702;2023-07-29T14:12:24;2.38;;;1.45;;
43150;SDS011;28755;51.478;5.702;2023-07-29T14:14:50;2.67;;;1.50;;
43150;SDS011;28755;51.478;5.702;2023-07-29T14:17:15;3.95;;;1.20;;
43150;SDS011;28755;51.478;5.702;2023-07-29T14:19:41;1.42;;;1.20;;
43150;SDS011;28755;51.478;5.702;2023-07-29T14:22:06;1.88;;;1.20;;
43150;SDS011;28755;51.478;5.702;2023-07-29T14:24:32;1.20;;;1.10;;
43150;SDS011;28755;51.478;5.702;2023-07-29T14:26:57;3.33;;;1.50;;
43150;SDS011;28755;51.478;5.702;2023-07-29T14:29:23;1.95;;;1.40;;
43150;SDS011;28755;51.478;5.702;2023-07-29T14:31:48;3.05;;;1.30;;
43150;SDS011;28755;51.478;5.702;2023-07-29T14:34:14;3.08;;;1.38;;
43150;SDS011;28755;51.478;5.702;2023-07-29T14:36:40;2.78;;;1.40;;
43150;SDS011;28755;51.478;5.702;2023-07-29T14:39:05;3.95;;;1.60;;
43150;SDS011;28755;51.478;5.702;2023-07-29T14:41:31;4.00;;;1.48;;
43150;SDS011;28755;51.478;5.702;2023-07-29T14:43:56;1.70;;;1.25;;
43150;SDS011;28755;51.478;5.702;2023-07-29T14:46:22;4.55;;;1.70;;
43150;SDS011;28755;51.478;5.702;2023-07-29T14:48:48;2.55;;;1.40;;
43150;SDS011;28755;51.478;5.702;2023-07-29T14:51:13;2.40;;;1.30;;